sensor_id;sensor_type;location;lat;lon;timestamp;temperature;humidity
69162;DHT22;56269;51.738;21.652;2024-01-06T00:00:42;-2.11;97.88
69162;DHT22;56269;51.738;21.652;2024-01-06T00:03:28;-2.10;98.01
69162;DHT22;56269;51.738;21.652;2024-01-06T00:05:54;-2.18;97.85
69162;DHT22;56269;51.738;21.652;2024-01-06T00:08:21;-2.20;97.85
69162;DHT22;56269;51.738;21.652;2024-01-06T00:10:47;-2.14;97.99
69162;DHT22;56269;51.738;21.652;2024-01-06T00:13:13;-2.11;98.00
69162;DHT22;56269;51.738;21.652;2024-01-06T00:15:39;-2.17;97.79
69162;DHT22;56269;51.738;21.652;2024-01-06T00:18:05;-2.11;97.94
69162;DHT22;56269;51.738;21.652;2024-01-06T00:20:31;-2.14;97.85
69162;DHT22;56269;51.738;21.652;2024-01-06T00:22:57;-2.11;98.38
69162;DHT22;56269;51.738;21.652;2024-01-06T00:25:24;-2.13;97.95
69162;DHT22;56269;51.738;21.652;2024-01-06T00:27:50;-2.23;98.26
69162;DHT22;56269;51.738;21.652;2024-01-06T00:30:16;-2.15;97.98
69162;DHT22;56269;51.738;21.652;2024-01-06T00:32:43;-2.17;98.26
69162;DHT22;56269;51.738;21.652;2024-01-06T00:35:09;-2.14;98.08
69162;DHT22;56269;51.738;21.652;2024-01-06T00:37:35;-2.15;98.14
69162;DHT22;56269;51.738;21.652;2024-01-06T00:40:01;-2.18;98.10
69162;DHT22;56269;51.738;21.652;2024-01-06T00:42:28;-2.15;98.33
69162;DHT22;56269;51.738;21.652;2024-01-06T00:44:54;-2.15;98.04
69162;DHT22;56269;51.738;21.652;2024-01-06T00:47:20;-2.13;98.40
69162;DHT22;56269;51.738;21.652;2024-01-06T00:49:49;-2.17;98.14
69162;DHT22;56269;51.738;21.652;2024-01-06T00:52:16;-2.21;98.31
69162;DHT22;56269;51.738;21.652;2024-01-06T00:54:42;-2.10;98.33
69162;DHT22;56269;51.738;21.652;2024-01-06T00:57:08;-2.14;98.05
69162;DHT22;56269;51.738;21.652;2024-01-06T00:59:34;-2.13;98.19
69162;DHT22;56269;51.738;21.652;2024-01-06T01:02:00;-2.10;98.25
69162;DHT22;56269;51.738;21.652;2024-01-06T01:04:26;-2.14;98.15
69162;DHT22;56269;51.738;21.652;2024-01-06T01:06:53;-2.15;98.38
69162;DHT22;56269;51.738;21.652;2024-01-06T01:09:19;-2.13;98.24
69162;DHT22;56269;51.738;21.652;2024-01-06T01:11:45;-2.17;98.35
69162;DHT22;56269;51.738;21.652;2024-01-06T01:14:11;-2.17;98.40
69162;DHT22;56269;51.738;21.652;2024-01-06T01:16:37;-2.21;98.53
69162;DHT22;56269;51.738;21.652;2024-01-06T01:19:03;-2.18;98.37
69162;DHT22;56269;51.738;21.652;2024-01-06T01:21:29;-2.18;98.25
69162;DHT22;56269;51.738;21.652;2024-01-06T01:23:55;-2.23;98.42
69162;DHT22;56269;51.738;21.652;2024-01-06T01:26:22;-2.24;98.61
69162;DHT22;56269;51.738;21.652;2024-01-06T01:28:48;-2.20;98.40
69162;DHT22;56269;51.738;21.652;2024-01-06T01:31:14;-2.15;98.41
69162;DHT22;56269;51.738;21.652;2024-01-06T01:33:40;-2.14;98.38
69162;DHT22;56269;51.738;21.652;2024-01-06T01:36:06;-2.20;98.41
69162;DHT22;56269;51.738;21.652;2024-01-06T01:38:32;-2.18;98.69
69162;DHT22;56269;51.738;21.652;2024-01-06T01:40:59;-2.14;98.52
69162;DHT22;56269;51.738;21.652;2024-01-06T01:43:25;-2.15;98.50
69162;DHT22;56269;51.738;21.652;2024-01-06T01:45:53;-2.23;98.41
69162;DHT22;56269;51.738;21.652;2024-01-06T01:48:20;-2.21;98.73
69162;DHT22;56269;51.738;21.652;2024-01-06T01:50:47;-2.24;98.73
69162;DHT22;56269;51.738;21.652;2024-01-06T01:53:13;-2.25;98.88
69162;DHT22;56269;51.738;21.652;2024-01-06T01:55:43;-2.13;98.74
69162;DHT22;56269;51.738;21.652;2024-01-06T01:58:10;-2.10;98.67
69162;DHT22;56269;51.738;21.652;2024-01-06T02:00:38;-2.18;98.38
69162;DHT22;56269;51.738;21.652;2024-01-06T02:03:05;-2.14;98.39
69162;DHT22;56269;51.738;21.652;2024-01-06T02:05:31;-2.15;98.36
69162;DHT22;56269;51.738;21.652;2024-01-06T02:07:57;-2.11;98.41
69162;DHT22;56269;51.738;21.652;2024-01-06T02:10:23;-2.13;98.39
69162;DHT22;56269;51.738;21.652;2024-01-06T02:12:50;-2.08;98.60
69162;DHT22;56269;51.738;21.652;2024-01-06T02:15:18;-2.14;98.42
69162;DHT22;56269;51.738;21.652;2024-01-06T02:17:45;-2.17;98.43
69162;DHT22;56269;51.738;21.652;2024-01-06T02:20:11;-2.18;98.50
69162;DHT22;56269;51.738;21.652;2024-01-06T02:22:39;-2.18;98.51
69162;DHT22;56269;51.738;21.652;2024-01-06T02:25:07;-2.20;98.48
69162;DHT22;56269;51.738;21.652;2024-01-06T02:27:39;-2.13;98.68
69162;DHT22;56269;51.738;21.652;2024-01-06T02:30:06;-2.18;98.34
69162;DHT22;56269;51.738;21.652;2024-01-06T02:32:33;-2.20;98.47
69162;DHT22;56269;51.738;21.652;2024-01-06T02:34:59;-2.21;98.61
69162;DHT22;56269;51.738;21.652;2024-01-06T02:37:25;-2.17;98.56
69162;DHT22;56269;51.738;21.652;2024-01-06T02:39:52;-2.25;98.57
69162;DHT22;56269;51.738;21.652;2024-01-06T02:42:19;-2.24;98.74
69162;DHT22;56269;51.738;21.652;2024-01-06T02:44:45;-2.17;98.70
69162;DHT22;56269;51.738;21.652;2024-01-06T02:47:11;-2.28;98.82
69162;DHT22;56269;51.738;21.652;2024-01-06T02:49:37;-2.25;98.86
69162;DHT22;56269;51.738;21.652;2024-01-06T02:52:04;-2.23;98.77
69162;DHT22;56269;51.738;21.652;2024-01-06T02:54:30;-2.17;98.91
69162;DHT22;56269;51.738;21.652;2024-01-06T02:56:56;-2.18;98.55
69162;DHT22;56269;51.738;21.652;2024-01-06T02:59:22;-2.18;98.85
69162;DHT22;56269;51.738;21.652;2024-01-06T03:01:48;-2.23;98.96
69162;DHT22;56269;51.738;21.652;2024-01-06T03:04:14;-2.23;98.83
69162;DHT22;56269;51.738;21.652;2024-01-06T03:06:41;-2.23;98.98
69162;DHT22;56269;51.738;21.652;2024-01-06T03:09:07;-2.17;98.74
69162;DHT22;56269;51.738;21.652;2024-01-06T03:11:33;-2.21;98.81
69162;DHT22;56269;51.738;21.652;2024-01-06T03:13:59;-2.34;99.12
69162;DHT22;56269;51.738;21.652;2024-01-06T03:16:25;-2.31;99.03
69162;DHT22;56269;51.738;21.652;2024-01-06T03:18:51;-2.30;99.03
69162;DHT22;56269;51.738;21.652;2024-01-06T03:21:19;-2.30;99.11
69162;DHT22;56269;51.738;21.652;2024-01-06T03:23:47;-2.30;99.25
69162;DHT22;56269;51.738;21.652;2024-01-06T03:26:14;-2.31;99.14
69162;DHT22;56269;51.738;21.652;2024-01-06T03:28:41;-2.34;99.08
69162;DHT22;56269;51.738;21.652;2024-01-06T03:31:07;-2.30;99.12
69162;DHT22;56269;51.738;21.652;2024-01-06T03:33:33;-2.23;98.98
69162;DHT22;56269;51.738;21.652;2024-01-06T03:36:06;-2.27;98.91
69162;DHT22;56269;51.738;21.652;2024-01-06T03:38:33;-2.27;99.09
69162;DHT22;56269;51.738;21.652;2024-01-06T03:40:59;-2.30;98.98
69162;DHT22;56269;51.738;21.652;2024-01-06T03:43:25;-2.33;99.21
69162;DHT22;56269;51.738;21.652;2024-01-06T03:45:54;-2.30;99.02
69162;DHT22;56269;51.738;21.652;2024-01-06T03:48:21;-2.28;98.88
69162;DHT22;56269;51.738;21.652;2024-01-06T03:50:47;-2.30;98.79
69162;DHT22;56269;51.738;21.652;2024-01-06T03:53:13;-2.30;98.78
69162;DHT22;56269;51.738;21.652;2024-01-06T03:55:40;-2.25;99.10
69162;DHT22;56269;51.738;21.652;2024-01-06T03:58:06;-2.27;98.85
69162;DHT22;56269;51.738;21.652;2024-01-06T04:00:32;-2.28;98.95
69162;DHT22;56269;51.738;21.652;2024-01-06T04:02:58;-2.27;99.02
69162;DHT22;56269;51.738;21.652;2024-01-06T04:05:24;-2.18;98.98
69162;DHT22;56269;51.738;21.652;2024-01-06T04:07:50;-2.27;99.11
69162;DHT22;56269;51.738;21.652;2024-01-06T04:10:16;-2.23;98.83
69162;DHT22;56269;51.738;21.652;2024-01-06T04:12:42;-2.21;99.10
69162;DHT22;56269;51.738;21.652;2024-01-06T04:15:09;-2.28;99.08
69162;DHT22;56269;51.738;21.652;2024-01-06T04:17:34;-2.27;99.14
69162;DHT22;56269;51.738;21.652;2024-01-06T04:20:01;-2.24;99.21
69162;DHT22;56269;51.738;21.652;2024-01-06T04:22:27;-2.25;99.29
69162;DHT22;56269;51.738;21.652;2024-01-06T04:24:53;-2.30;99.33
69162;DHT22;56269;51.738;21.652;2024-01-06T04:27:19;-2.30;99.15
69162;DHT22;56269;51.738;21.652;2024-01-06T04:29:45;-2.33;99.17
69162;DHT22;56269;51.738;21.652;2024-01-06T04:32:11;-2.37;99.34
69162;DHT22;56269;51.738;21.652;2024-01-06T04:34:37;-2.33;99.33
69162;DHT22;56269;51.738;21.652;2024-01-06T04:37:03;-2.34;99.33
69162;DHT22;56269;51.738;21.652;2024-01-06T04:39:30;-2.38;99.40
69162;DHT22;56269;51.738;21.652;2024-01-06T04:41:55;-2.27;99.16
69162;DHT22;56269;51.738;21.652;2024-01-06T04:44:22;-2.27;98.96
69162;DHT22;56269;51.738;21.652;2024-01-06T04:46:48;-2.33;98.99
69162;DHT22;56269;51.738;21.652;2024-01-06T04:49:14;-2.30;99.09
69162;DHT22;56269;51.738;21.652;2024-01-06T04:51:40;-2.34;99.03
69162;DHT22;56269;51.738;21.652;2024-01-06T04:54:07;-2.34;99.07
69162;DHT22;56269;51.738;21.652;2024-01-06T04:56:34;-2.38;99.19
69162;DHT22;56269;51.738;21.652;2024-01-06T04:59:00;-2.35;99.16
69162;DHT22;56269;51.738;21.652;2024-01-06T05:01:27;-2.33;99.25
69162;DHT22;56269;51.738;21.652;2024-01-06T05:03:53;-2.27;99.14
69162;DHT22;56269;51.738;21.652;2024-01-06T05:06:19;-2.34;99.18
69162;DHT22;56269;51.738;21.652;2024-01-06T05:08:45;-2.25;98.98
69162;DHT22;56269;51.738;21.652;2024-01-06T05:11:11;-2.28;98.86
69162;DHT22;56269;51.738;21.652;2024-01-06T05:13:38;-2.28;99.01
69162;DHT22;56269;51.738;21.652;2024-01-06T05:16:04;-2.24;99.11
69162;DHT22;56269;51.738;21.652;2024-01-06T05:18:30;-2.23;98.87
69162;DHT22;56269;51.738;21.652;2024-01-06T05:20:57;-2.30;99.01
69162;DHT22;56269;51.738;21.652;2024-01-06T05:23:23;-2.28;98.99
69162;DHT22;56269;51.738;21.652;2024-01-06T05:25:49;-2.35;98.74
69162;DHT22;56269;51.738;21.652;2024-01-06T05:28:15;-2.30;98.95
69162;DHT22;56269;51.738;21.652;2024-01-06T05:30:41;-2.28;99.21
69162;DHT22;56269;51.738;21.652;2024-01-06T05:33:11;-2.33;98.83
69162;DHT22;56269;51.738;21.652;2024-01-06T05:35:39;-2.25;98.92
69162;DHT22;56269;51.738;21.652;2024-01-06T05:38:05;-2.33;99.07
69162;DHT22;56269;51.738;21.652;2024-01-06T05:40:31;-2.28;99.03
69162;DHT22;56269;51.738;21.652;2024-01-06T05:42:57;-2.28;99.07
69162;DHT22;56269;51.738;21.652;2024-01-06T05:45:23;-2.28;99.14
69162;DHT22;56269;51.738;21.652;2024-01-06T05:47:49;-2.17;98.88
69162;DHT22;56269;51.738;21.652;2024-01-06T05:50:16;-2.28;98.87
69162;DHT22;56269;51.738;21.652;2024-01-06T05:52:42;-2.21;99.02
69162;DHT22;56269;51.738;21.652;2024-01-06T05:55:08;-2.23;98.94
69162;DHT22;56269;51.738;21.652;2024-01-06T05:57:35;-2.30;99.01
69162;DHT22;56269;51.738;21.652;2024-01-06T06:00:01;-2.28;99.05
69162;DHT22;56269;51.738;21.652;2024-01-06T06:02:27;-2.23;99.02
69162;DHT22;56269;51.738;21.652;2024-01-06T06:04:53;-2.21;98.94
69162;DHT22;56269;51.738;21.652;2024-01-06T06:07:22;-2.18;99.01
69162;DHT22;56269;51.738;21.652;2024-01-06T06:09:48;-2.24;99.06
69162;DHT22;56269;51.738;21.652;2024-01-06T06:12:14;-2.24;99.02
69162;DHT22;56269;51.738;21.652;2024-01-06T06:14:40;-2.17;98.92
69162;DHT22;56269;51.738;21.652;2024-01-06T06:17:07;-2.15;98.82
69162;DHT22;56269;51.738;21.652;2024-01-06T06:19:33;-2.25;99.13
69162;DHT22;56269;51.738;21.652;2024-01-06T06:21:59;-2.24;99.13
69162;DHT22;56269;51.738;21.652;2024-01-06T06:24:26;-2.24;99.12
69162;DHT22;56269;51.738;21.652;2024-01-06T06:26:52;-2.27;99.20
69162;DHT22;56269;51.738;21.652;2024-01-06T06:29:18;-2.15;99.19
69162;DHT22;56269;51.738;21.652;2024-01-06T06:31:46;-2.23;99.09
69162;DHT22;56269;51.738;21.652;2024-01-06T06:34:12;-2.24;99.36
69162;DHT22;56269;51.738;21.652;2024-01-06T06:36:39;-2.21;99.10
69162;DHT22;56269;51.738;21.652;2024-01-06T06:39:05;-2.23;99.21
69162;DHT22;56269;51.738;21.652;2024-01-06T06:41:31;-2.13;99.03
69162;DHT22;56269;51.738;21.652;2024-01-06T06:43:57;-2.14;98.88
69162;DHT22;56269;51.738;21.652;2024-01-06T06:46:23;-2.13;98.94
69162;DHT22;56269;51.738;21.652;2024-01-06T06:48:50;-2.18;99.00
69162;DHT22;56269;51.738;21.652;2024-01-06T06:51:16;-2.21;98.76
69162;DHT22;56269;51.738;21.652;2024-01-06T06:53:42;-2.18;98.95
69162;DHT22;56269;51.738;21.652;2024-01-06T06:56:08;-2.18;98.95
69162;DHT22;56269;51.738;21.652;2024-01-06T06:58:34;-2.17;98.94
69162;DHT22;56269;51.738;21.652;2024-01-06T07:01:00;-2.11;98.78
69162;DHT22;56269;51.738;21.652;2024-01-06T07:03:26;-2.10;98.80
69162;DHT22;56269;51.738;21.652;2024-01-06T07:05:52;-2.08;98.80
69162;DHT22;56269;51.738;21.652;2024-01-06T07:08:19;-2.07;98.87
69162;DHT22;56269;51.738;21.652;2024-01-06T07:10:44;-2.06;98.75
69162;DHT22;56269;51.738;21.652;2024-01-06T07:13:11;-2.03;98.46
69162;DHT22;56269;51.738;21.652;2024-01-06T07:15:37;-2.03;98.61
69162;DHT22;56269;51.738;21.652;2024-01-06T07:18:03;-2.01;98.80
69162;DHT22;56269;51.738;21.652;2024-01-06T07:20:29;-1.97;98.58
69162;DHT22;56269;51.738;21.652;2024-01-06T07:22:55;-1.97;98.42
69162;DHT22;56269;51.738;21.652;2024-01-06T07:25:21;-1.96;98.32
69162;DHT22;56269;51.738;21.652;2024-01-06T07:27:48;-1.93;98.40
69162;DHT22;56269;51.738;21.652;2024-01-06T07:30:14;-1.96;98.38
69162;DHT22;56269;51.738;21.652;2024-01-06T07:32:40;-1.89;98.26
69162;DHT22;56269;51.738;21.652;2024-01-06T07:35:08;-1.86;97.94
69162;DHT22;56269;51.738;21.652;2024-01-06T07:37:34;-1.84;98.13
69162;DHT22;56269;51.738;21.652;2024-01-06T07:40:00;-1.84;97.96
69162;DHT22;56269;51.738;21.652;2024-01-06T07:42:27;-2.01;98.24
69162;DHT22;56269;51.738;21.652;2024-01-06T07:44:53;-2.01;98.29
69162;DHT22;56269;51.738;21.652;2024-01-06T07:47:19;-2.03;98.30
69162;DHT22;56269;51.738;21.652;2024-01-06T07:49:45;-2.00;98.38
69162;DHT22;56269;51.738;21.652;2024-01-06T07:52:13;-2.01;98.33
69162;DHT22;56269;51.738;21.652;2024-01-06T07:54:39;-1.91;98.25
69162;DHT22;56269;51.738;21.652;2024-01-06T07:57:05;-1.84;98.14
69162;DHT22;56269;51.738;21.652;2024-01-06T07:59:31;-1.86;98.01
69162;DHT22;56269;51.738;21.652;2024-01-06T08:01:58;-1.80;98.17
69162;DHT22;56269;51.738;21.652;2024-01-06T08:04:24;-1.70;97.80
69162;DHT22;56269;51.738;21.652;2024-01-06T08:06:50;-1.66;97.68
69162;DHT22;56269;51.738;21.652;2024-01-06T08:09:16;-1.65;97.92
69162;DHT22;56269;51.738;21.652;2024-01-06T08:11:43;-1.66;97.98
69162;DHT22;56269;51.738;21.652;2024-01-06T08:14:11;-1.56;97.95
69162;DHT22;56269;51.738;21.652;2024-01-06T08:16:37;-1.55;97.65
69162;DHT22;56269;51.738;21.652;2024-01-06T08:19:03;-1.42;97.66
69162;DHT22;56269;51.738;21.652;2024-01-06T08:21:30;-1.34;97.11
69162;DHT22;56269;51.738;21.652;2024-01-06T08:23:55;-1.34;97.36
69162;DHT22;56269;51.738;21.652;2024-01-06T08:26:22;-1.39;97.09
69162;DHT22;56269;51.738;21.652;2024-01-06T08:28:48;-1.38;97.14
69162;DHT22;56269;51.738;21.652;2024-01-06T08:31:14;-1.31;97.10
69162;DHT22;56269;51.738;21.652;2024-01-06T08:33:40;-1.18;97.18
69162;DHT22;56269;51.738;21.652;2024-01-06T08:36:07;-1.24;96.86
69162;DHT22;56269;51.738;21.652;2024-01-06T08:38:32;-1.22;97.12
69162;DHT22;56269;51.738;21.652;2024-01-06T08:40:59;-1.24;97.06
69162;DHT22;56269;51.738;21.652;2024-01-06T08:43:25;-1.24;96.92
69162;DHT22;56269;51.738;21.652;2024-01-06T08:45:51;-1.12;96.50
69162;DHT22;56269;51.738;21.652;2024-01-06T08:48:17;-1.16;96.99
69162;DHT22;56269;51.738;21.652;2024-01-06T08:50:44;-1.25;96.81
69162;DHT22;56269;51.738;21.652;2024-01-06T08:53:13;-1.21;97.21
69162;DHT22;56269;51.738;21.652;2024-01-06T08:55:39;-1.12;97.01
69162;DHT22;56269;51.738;21.652;2024-01-06T08:58:05;-1.14;97.00
69162;DHT22;56269;51.738;21.652;2024-01-06T09:00:31;-1.21;96.91
69162;DHT22;56269;51.738;21.652;2024-01-06T09:02:57;-1.24;96.85
69162;DHT22;56269;51.738;21.652;2024-01-06T09:05:24;-1.18;96.85
69162;DHT22;56269;51.738;21.652;2024-01-06T09:07:50;-1.15;96.72
69162;DHT22;56269;51.738;21.652;2024-01-06T09:10:17;-1.11;96.71
69162;DHT22;56269;51.738;21.652;2024-01-06T09:12:43;-1.15;97.14
69162;DHT22;56269;51.738;21.652;2024-01-06T09:15:09;-1.01;96.84
69162;DHT22;56269;51.738;21.652;2024-01-06T09:17:35;-1.04;96.60
69162;DHT22;56269;51.738;21.652;2024-01-06T09:20:02;-0.98;96.59
69162;DHT22;56269;51.738;21.652;2024-01-06T09:22:28;-1.05;96.91
69162;DHT22;56269;51.738;21.652;2024-01-06T09:24:54;-0.97;96.81
69162;DHT22;56269;51.738;21.652;2024-01-06T09:27:20;-0.87;96.65
69162;DHT22;56269;51.738;21.652;2024-01-06T09:29:47;-0.88;96.49
69162;DHT22;56269;51.738;21.652;2024-01-06T09:32:13;-0.98;96.50
69162;DHT22;56269;51.738;21.652;2024-01-06T09:34:39;-0.91;96.57
69162;DHT22;56269;51.738;21.652;2024-01-06T09:37:05;-1.00;96.46
69162;DHT22;56269;51.738;21.652;2024-01-06T09:39:31;-1.11;96.72
69162;DHT22;56269;51.738;21.652;2024-01-06T09:41:57;-1.15;96.99
69162;DHT22;56269;51.738;21.652;2024-01-06T09:44:24;-1.12;96.65
69162;DHT22;56269;51.738;21.652;2024-01-06T09:46:50;-1.28;97.21
69162;DHT22;56269;51.738;21.652;2024-01-06T09:49:22;-1.16;97.27
69162;DHT22;56269;51.738;21.652;2024-01-06T09:51:49;-1.15;96.62
69162;DHT22;56269;51.738;21.652;2024-01-06T09:54:22;-1.24;96.87
69162;DHT22;56269;51.738;21.652;2024-01-06T09:56:51;-1.16;96.85
69162;DHT22;56269;51.738;21.652;2024-01-06T09:59:18;-1.08;96.92
69162;DHT22;56269;51.738;21.652;2024-01-06T10:01:47;-1.24;97.20
69162;DHT22;56269;51.738;21.652;2024-01-06T10:04:15;-1.08;96.50
69162;DHT22;56269;51.738;21.652;2024-01-06T10:06:41;-1.05;96.33
69162;DHT22;56269;51.738;21.652;2024-01-06T10:09:08;-1.09;96.23
69162;DHT22;56269;51.738;21.652;2024-01-06T10:11:35;-0.83;96.04
69162;DHT22;56269;51.738;21.652;2024-01-06T10:14:03;-0.76;95.47
69162;DHT22;56269;51.738;21.652;2024-01-06T10:16:29;-0.84;95.27
69162;DHT22;56269;51.738;21.652;2024-01-06T10:18:56;-0.88;94.85
69162;DHT22;56269;51.738;21.652;2024-01-06T10:21:22;-0.87;95.12
69162;DHT22;56269;51.738;21.652;2024-01-06T10:23:48;-0.81;95.15
69162;DHT22;56269;51.738;21.652;2024-01-06T10:26:15;-0.88;95.03
69162;DHT22;56269;51.738;21.652;2024-01-06T10:28:41;-1.11;95.62
69162;DHT22;56269;51.738;21.652;2024-01-06T10:31:08;-1.15;95.93
69162;DHT22;56269;51.738;21.652;2024-01-06T10:33:35;-1.09;95.88
69162;DHT22;56269;51.738;21.652;2024-01-06T10:36:02;-1.18;95.71
69162;DHT22;56269;51.738;21.652;2024-01-06T10:38:29;-1.15;95.46
69162;DHT22;56269;51.738;21.652;2024-01-06T10:41:02;-1.19;95.52
69162;DHT22;56269;51.738;21.652;2024-01-06T10:43:33;-1.08;95.70
69162;DHT22;56269;51.738;21.652;2024-01-06T10:46:06;-1.22;95.44
69162;DHT22;56269;51.738;21.652;2024-01-06T10:48:38;-1.31;95.69
69162;DHT22;56269;51.738;21.652;2024-01-06T10:51:09;-1.30;95.93
69162;DHT22;56269;51.738;21.652;2024-01-06T10:53:35;-1.18;95.71
69162;DHT22;56269;51.738;21.652;2024-01-06T10:56:03;-1.48;95.76
69162;DHT22;56269;51.738;21.652;2024-01-06T10:58:34;-1.42;95.90
69162;DHT22;56269;51.738;21.652;2024-01-06T11:01:03;-1.46;95.90
69162;DHT22;56269;51.738;21.652;2024-01-06T11:03:29;-1.53;96.22
69162;DHT22;56269;51.738;21.652;2024-01-06T11:05:59;-1.25;95.75
69162;DHT22;56269;51.738;21.652;2024-01-06T11:08:26;-1.35;96.09
69162;DHT22;56269;51.738;21.652;2024-01-06T11:10:54;-1.28;95.86
69162;DHT22;56269;51.738;21.652;2024-01-06T11:13:22;-1.41;96.07
69162;DHT22;56269;51.738;21.652;2024-01-06T11:15:50;-1.48;95.94
69162;DHT22;56269;51.738;21.652;2024-01-06T11:18:38;-1.51;96.31
69162;DHT22;56269;51.738;21.652;2024-01-06T11:21:20;-1.43;96.34
69162;DHT22;56269;51.738;21.652;2024-01-06T11:24:15;-1.52;96.02
69162;DHT22;56269;51.738;21.652;2024-01-06T11:26:43;-1.56;95.85
69162;DHT22;56269;51.738;21.652;2024-01-06T11:29:10;-1.55;96.04
69162;DHT22;56269;51.738;21.652;2024-01-06T11:31:37;-1.63;96.53
69162;DHT22;56269;51.738;21.652;2024-01-06T11:34:15;-1.53;96.34
69162;DHT22;56269;51.738;21.652;2024-01-06T11:36:45;-1.60;96.90
69162;DHT22;56269;51.738;21.652;2024-01-06T11:39:36;-1.65;96.41
69162;DHT22;56269;51.738;21.652;2024-01-06T11:42:04;-1.63;96.34
69162;DHT22;56269;51.738;21.652;2024-01-06T11:44:36;-1.69;96.19
69162;DHT22;56269;51.738;21.652;2024-01-06T11:47:04;-1.65;96.35
69162;DHT22;56269;51.738;21.652;2024-01-06T11:49:31;-1.70;96.37
69162;DHT22;56269;51.738;21.652;2024-01-06T11:51:57;-1.70;96.63
69162;DHT22;56269;51.738;21.652;2024-01-06T11:54:24;-1.80;96.93
69162;DHT22;56269;51.738;21.652;2024-01-06T11:56:50;-1.77;96.93
69162;DHT22;56269;51.738;21.652;2024-01-06T11:59:20;-1.75;96.88
69162;DHT22;56269;51.738;21.652;2024-01-06T12:01:46;-1.82;96.94
69162;DHT22;56269;51.738;21.652;2024-01-06T12:04:17;-1.77;97.05
69162;DHT22;56269;51.738;21.652;2024-01-06T12:06:43;-1.77;97.30
69162;DHT22;56269;51.738;21.652;2024-01-06T12:09:11;-1.72;97.52
69162;DHT22;56269;51.738;21.652;2024-01-06T12:11:41;-1.77;97.20
69162;DHT22;56269;51.738;21.652;2024-01-06T12:14:07;-1.75;97.15
69162;DHT22;56269;51.738;21.652;2024-01-06T12:16:33;-1.87;97.45
69162;DHT22;56269;51.738;21.652;2024-01-06T12:19:00;-1.80;97.38
69162;DHT22;56269;51.738;21.652;2024-01-06T12:21:27;-1.73;97.15
69162;DHT22;56269;51.738;21.652;2024-01-06T12:23:54;-1.76;97.25
69162;DHT22;56269;51.738;21.652;2024-01-06T12:26:20;-1.69;97.25
69162;DHT22;56269;51.738;21.652;2024-01-06T12:28:48;-1.77;97.30
69162;DHT22;56269;51.738;21.652;2024-01-06T12:31:15;-1.66;97.21
69162;DHT22;56269;51.738;21.652;2024-01-06T12:33:42;-1.75;97.09
69162;DHT22;56269;51.738;21.652;2024-01-06T12:36:08;-1.76;97.29
69162;DHT22;56269;51.738;21.652;2024-01-06T12:38:35;-1.63;96.89
69162;DHT22;56269;51.738;21.652;2024-01-06T12:41:01;-1.72;96.90
69162;DHT22;56269;51.738;21.652;2024-01-06T12:43:27;-1.75;96.93
69162;DHT22;56269;51.738;21.652;2024-01-06T12:45:53;-1.90;97.01
69162;DHT22;56269;51.738;21.652;2024-01-06T12:48:20;-1.90;97.04
69162;DHT22;56269;51.738;21.652;2024-01-06T12:50:46;-1.98;97.46
69162;DHT22;56269;51.738;21.652;2024-01-06T12:53:12;-2.01;97.57
69162;DHT22;56269;51.738;21.652;2024-01-06T12:55:40;-1.97;97.43
69162;DHT22;56269;51.738;21.652;2024-01-06T12:58:07;-2.04;97.82
69162;DHT22;56269;51.738;21.652;2024-01-06T13:00:34;-1.96;97.59
69162;DHT22;56269;51.738;21.652;2024-01-06T13:03:00;-2.04;97.28
69162;DHT22;56269;51.738;21.652;2024-01-06T13:05:26;-2.13;97.58
69162;DHT22;56269;51.738;21.652;2024-01-06T13:07:53;-2.03;97.42
69162;DHT22;56269;51.738;21.652;2024-01-06T13:10:20;-2.11;97.29
69162;DHT22;56269;51.738;21.652;2024-01-06T13:12:46;-2.04;97.41
69162;DHT22;56269;51.738;21.652;2024-01-06T13:15:12;-2.06;97.31
69162;DHT22;56269;51.738;21.652;2024-01-06T13:17:39;-2.01;97.26
69162;DHT22;56269;51.738;21.652;2024-01-06T13:20:06;-2.01;96.83
69162;DHT22;56269;51.738;21.652;2024-01-06T13:22:34;-2.06;97.04
69162;DHT22;56269;51.738;21.652;2024-01-06T13:25:00;-2.08;97.34
69162;DHT22;56269;51.738;21.652;2024-01-06T13:27:26;-2.04;97.38
69162;DHT22;56269;51.738;21.652;2024-01-06T13:29:53;-2.07;97.13
69162;DHT22;56269;51.738;21.652;2024-01-06T13:32:20;-2.04;97.39
69162;DHT22;56269;51.738;21.652;2024-01-06T13:34:47;-2.11;97.75
69162;DHT22;56269;51.738;21.652;2024-01-06T13:37:14;-2.07;96.93
69162;DHT22;56269;51.738;21.652;2024-01-06T13:39:40;-2.23;96.86
69162;DHT22;56269;51.738;21.652;2024-01-06T13:42:06;-2.24;97.00
69162;DHT22;56269;51.738;21.652;2024-01-06T13:49:22;-2.30;97.53
69162;DHT22;56269;51.738;21.652;2024-01-06T13:51:49;-2.41;97.59
69162;DHT22;56269;51.738;21.652;2024-01-06T13:54:15;-2.31;97.49
69162;DHT22;56269;51.738;21.652;2024-01-06T13:56:42;-2.33;97.36
69162;DHT22;56269;51.738;21.652;2024-01-06T13:59:08;-2.30;97.25
69162;DHT22;56269;51.738;21.652;2024-01-06T14:01:34;-2.31;96.98
69162;DHT22;56269;51.738;21.652;2024-01-06T14:04:00;-2.35;97.43
69162;DHT22;56269;51.738;21.652;2024-01-06T14:06:27;-2.31;97.35
69162;DHT22;56269;51.738;21.652;2024-01-06T14:08:57;-2.21;97.43
69162;DHT22;56269;51.738;21.652;2024-01-06T14:11:24;-2.25;96.70
69162;DHT22;56269;51.738;21.652;2024-01-06T14:13:57;-2.30;96.54
69162;DHT22;56269;51.738;21.652;2024-01-06T14:16:23;-2.34;97.04
69162;DHT22;56269;51.738;21.652;2024-01-06T14:18:49;-2.30;96.73
69162;DHT22;56269;51.738;21.652;2024-01-06T14:21:16;-2.30;96.41
69162;DHT22;56269;51.738;21.652;2024-01-06T14:23:48;-2.30;96.12
69162;DHT22;56269;51.738;21.652;2024-01-06T14:26:19;-2.37;95.64
69162;DHT22;56269;51.738;21.652;2024-01-06T14:28:49;-2.40;95.59
69162;DHT22;56269;51.738;21.652;2024-01-06T14:31:16;-2.40;95.28
69162;DHT22;56269;51.738;21.652;2024-01-06T14:33:45;-2.35;95.06
69162;DHT22;56269;51.738;21.652;2024-01-06T14:36:11;-2.42;95.19
69162;DHT22;56269;51.738;21.652;2024-01-06T14:38:37;-2.44;94.83
69162;DHT22;56269;51.738;21.652;2024-01-06T14:41:04;-2.40;95.03
69162;DHT22;56269;51.738;21.652;2024-01-06T14:43:30;-2.45;94.31
69162;DHT22;56269;51.738;21.652;2024-01-06T14:45:57;-2.45;94.70
69162;DHT22;56269;51.738;21.652;2024-01-06T14:48:23;-2.45;94.54
69162;DHT22;56269;51.738;21.652;2024-01-06T14:50:51;-2.42;94.72
69162;DHT22;56269;51.738;21.652;2024-01-06T14:53:17;-2.35;94.83
69162;DHT22;56269;51.738;21.652;2024-01-06T14:55:44;-2.34;94.04
69162;DHT22;56269;51.738;21.652;2024-01-06T14:58:10;-2.41;93.75
69162;DHT22;56269;51.738;21.652;2024-01-06T15:00:36;-2.44;94.59
69162;DHT22;56269;51.738;21.652;2024-01-06T15:03:03;-2.38;93.63
69162;DHT22;56269;51.738;21.652;2024-01-06T15:05:29;-2.44;93.86
69162;DHT22;56269;51.738;21.652;2024-01-06T15:07:56;-2.42;93.64
69162;DHT22;56269;51.738;21.652;2024-01-06T15:10:22;-2.40;92.88
69162;DHT22;56269;51.738;21.652;2024-01-06T15:12:48;-2.45;93.57
69162;DHT22;56269;51.738;21.652;2024-01-06T15:15:14;-2.40;93.12
69162;DHT22;56269;51.738;21.652;2024-01-06T15:17:41;-2.42;92.48